Airfield :







YOU CAN JOIN US ON...

 
LOGIN :

Register | Disclaimer

   EN    FR    IT 

 









Legend :    VFR   Marginal VFR   IFR   Intensive IFR   Very Intensive IFR
Visi :
Ceiling :
>= 8 km
>= 3000ft
5 to 8 km
1000 to 3000 ft
1500m to 5 km
500 to 1000 ft
800 to 1500m
200 to 500 ft
< 800m
< 200 ft
Symbols :   Thunderstorms  Fog  Heavy snow  Heavy precipitations  Wind > 20 kt






- Airport Elevation : 1825 ft


K8B0 - Steven A. Bean Municipal

CURRENT METAR :
  • 171855Z AUTO 19007G14KT 150V210 10SM CLR 21/14 A3032 RMK AO2

EXPIRED METARs :
  • 171835Z AUTO 18006G12KT 10SM CLR 21/14 A3033 RMK AO2
  • 171815Z AUTO 21009KT 10SM CLR 22/14 A3033 RMK AO2
  • 171755Z AUTO VRB06G12KT 9SM CLR 22/14 A3033 RMK AO2
  • 171735Z AUTO VRB06KT 9SM CLR 21/14 A3034 RMK AO2
  • 171715Z AUTO 21007KT 180V250 8SM CLR 21/13 A3034 RMK AO2
  • 171655Z AUTO VRB05G10KT 10SM CLR 21/14 A3035 RMK AO2
  • 171635Z AUTO 19008KT 160V220 10SM CLR 21/13 A3035 RMK AO2
  • 171615Z AUTO 17007KT 140V200 10SM CLR 20/13 A3035 RMK AO2

TAF N/A



MET'MAP, your aeronautical weather chart ! - Copyright ORBIFLY December 2007 - Disclaimer

ORBIFLY MET'MAP TEAM :

Programming & Development : Alexandra Zaïnal
Concept & original design : Baudouin d'Aumeries
Assistance for programming : Marc-Olivier Méhu
Technical & hardware support : Manuel Goepfert

Contact : metmap@orbifly.com




SOURCES & CREDITS :

   NOAA